createdAt,value
2019-01-05T00:00:54.843Z,4.70
2019-01-05T00:03:55.236Z,4.70
2019-01-05T00:06:39.091Z,4.70
2019-01-05T00:09:25.953Z,4.50
2019-01-05T00:12:16.374Z,4.50
2019-01-05T00:15:10.338Z,4.60
2019-01-05T00:18:13.151Z,4.50
2019-01-05T00:21:06.424Z,4.50
2019-01-05T00:24:09.459Z,4.40
2019-01-05T00:26:56.362Z,4.40
2019-01-05T00:29:48.074Z,4.40
2019-01-05T00:32:41.747Z,4.50
2019-01-05T00:35:34.646Z,4.50
2019-01-05T00:38:21.570Z,4.60
2019-01-05T00:41:13.048Z,4.50
2019-01-05T00:44:13.635Z,4.60
2019-01-05T00:47:01.186Z,4.60
2019-01-05T00:49:49.490Z,4.60
2019-01-05T00:52:41.610Z,4.60
2019-01-05T00:55:28.864Z,4.60
2019-01-05T00:58:23.794Z,4.70
2019-01-05T01:01:27.112Z,4.70
2019-01-05T01:04:13.682Z,4.70
2019-01-05T01:07:20.402Z,4.70
2019-01-05T01:09:58.082Z,4.60
2019-01-05T01:12:39.723Z,4.70
2019-01-05T01:15:36.699Z,4.70
2019-01-05T01:18:23.716Z,4.60
2019-01-05T01:21:07.491Z,4.50
2019-01-05T01:23:53.571Z,4.50
2019-01-05T01:26:41.971Z,4.50
2019-01-05T01:29:45.699Z,4.40
2019-01-05T01:32:41.286Z,4.40
2019-01-05T01:35:27.239Z,4.40
2019-01-05T01:38:34.883Z,4.50
2019-01-05T01:41:25.827Z,4.40
2019-01-05T01:44:12.897Z,4.30
2019-01-05T01:47:01.034Z,4.30
2019-01-05T01:49:49.847Z,4.30
2019-01-05T01:52:38.482Z,4.40
2019-01-05T01:55:32.062Z,4.50
2019-01-05T01:58:20.455Z,4.30
2019-01-05T02:01:21.090Z,4.30
2019-01-05T02:04:12.434Z,4.40
2019-01-05T02:07:03.735Z,4.30
2019-01-05T02:10:02.525Z,4.30
2019-01-05T02:12:45.894Z,4.30
2019-01-05T02:15:43.861Z,4.30
2019-01-05T02:18:57.686Z,4.30
2019-01-05T02:22:11.789Z,4.20
2019-01-05T02:25:25.955Z,4.30
2019-01-05T02:28:48.226Z,4.30
2019-01-05T02:32:29.625Z,4.20
2019-01-05T02:35:28.545Z,4.10
2019-01-05T02:38:32.284Z,4.20
2019-01-05T02:41:59.082Z,4.30
2019-01-05T02:45:27.031Z,4.30
2019-01-05T02:48:56.103Z,4.30
2019-01-05T02:52:33.312Z,4.40
2019-01-05T02:56:03.846Z,4.40
2019-01-05T02:59:16.890Z,4.30
2019-01-05T03:02:35.836Z,4.30
2019-01-05T03:05:55.101Z,4.40
2019-01-05T03:09:20.781Z,4.30
2019-01-05T03:12:47.992Z,4.40
2019-01-05T03:16:12.530Z,4.40
2019-01-05T03:20:01.368Z,4.30
2019-01-05T03:23:07.579Z,4.30
2019-01-05T03:26:48.419Z,4.30
2019-01-05T03:29:49.266Z,4.20
2019-01-05T03:33:19.075Z,4.20
2019-01-05T03:36:49.632Z,4.20
2019-01-05T03:40:22.322Z,4.20
2019-01-05T03:44:06.859Z,4.30
2019-01-05T03:47:44.491Z,4.20
2019-01-05T03:51:12.583Z,4.10
2019-01-05T03:55:03.570Z,4.00
2019-01-05T03:58:28.933Z,4.00
2019-01-05T04:02:08.321Z,4.00
2019-01-05T04:05:31.927Z,3.90
2019-01-05T04:08:38.717Z,3.90
2019-01-05T04:12:00.287Z,3.90
2019-01-05T04:16:02.815Z,3.90
2019-01-05T04:19:29.715Z,3.90
2019-01-05T04:22:53.510Z,3.90
2019-01-05T04:26:25.818Z,3.90
2019-01-05T04:29:48.294Z,3.90
2019-01-05T04:33:09.934Z,3.90
2019-01-05T04:36:29.023Z,3.90
2019-01-05T04:39:56.662Z,3.90
2019-01-05T04:43:25.829Z,3.80
2019-01-05T04:46:49.006Z,3.80
2019-01-05T04:50:01.648Z,3.80
2019-01-05T04:53:10.553Z,3.80
2019-01-05T04:56:44.057Z,3.70
2019-01-05T04:59:55.613Z,3.90
2019-01-05T05:03:21.989Z,3.80
2019-01-05T05:06:51.781Z,3.80
2019-01-05T05:10:28.401Z,3.80
2019-01-05T05:13:51.870Z,3.90
2019-01-05T05:17:06.744Z,3.70
2019-01-05T05:20:22.537Z,3.80
2019-01-05T05:24:01.267Z,3.70
2019-01-05T05:27:30.415Z,3.80
2019-01-05T05:31:03.046Z,3.70
2019-01-05T05:34:36.877Z,3.70
2019-01-05T05:38:29.229Z,3.70
2019-01-05T05:42:09.223Z,3.80
2019-01-05T05:45:43.630Z,3.80
2019-01-05T05:49:09.259Z,3.80
2019-01-05T05:52:46.953Z,3.80
2019-01-05T05:56:08.394Z,3.80
2019-01-05T05:59:33.872Z,3.80
2019-01-05T06:03:23.746Z,3.70
2019-01-05T06:06:52.357Z,3.70
2019-01-05T06:10:25.308Z,3.70
2019-01-05T06:13:56.023Z,3.70
2019-01-05T06:17:32.914Z,3.70
2019-01-05T06:21:02.809Z,3.70
2019-01-05T06:24:35.321Z,3.80
2019-01-05T06:28:10.817Z,3.70
2019-01-05T06:31:33.910Z,3.80
2019-01-05T06:35:13.563Z,3.70
2019-01-05T06:38:40.082Z,3.80
2019-01-05T06:42:00.406Z,3.70
2019-01-05T06:45:23.674Z,3.60
2019-01-05T06:48:56.217Z,3.70
2019-01-05T06:52:45.054Z,3.70
2019-01-05T06:56:41.065Z,3.80
2019-01-05T07:00:16.547Z,3.80
2019-01-05T07:03:24.242Z,3.80
2019-01-05T07:07:03.030Z,3.80
2019-01-05T07:10:41.027Z,3.80
2019-01-05T07:14:11.224Z,3.80
2019-01-05T07:17:30.950Z,3.90
2019-01-05T07:20:56.312Z,3.90
2019-01-05T07:24:52.126Z,3.90
2019-01-05T07:28:23.218Z,3.90
2019-01-05T07:31:47.673Z,3.90
2019-01-05T07:34:56.375Z,3.90
2019-01-05T07:38:35.289Z,3.90
2019-01-05T07:41:45.882Z,3.90
2019-01-05T07:45:28.833Z,3.90
2019-01-05T07:49:07.693Z,4.00
2019-01-05T07:52:40.233Z,4.00
2019-01-05T07:56:02.050Z,4.10
2019-01-05T07:59:40.667Z,4.10
2019-01-05T08:03:16.399Z,4.10
2019-01-05T08:06:36.480Z,4.10
2019-01-05T08:10:15.169Z,4.00
2019-01-05T08:13:53.406Z,4.00
2019-01-05T08:17:20.282Z,4.00
2019-01-05T08:20:44.491Z,4.00
2019-01-05T08:24:28.324Z,4.00
2019-01-05T08:27:44.670Z,4.10
2019-01-05T08:31:31.877Z,4.10
2019-01-05T08:35:17.553Z,4.10
2019-01-05T08:38:54.209Z,4.10
2019-01-05T08:42:24.652Z,4.00
2019-01-05T08:45:54.363Z,3.90
2019-01-05T08:49:31.977Z,4.00
2019-01-05T08:53:12.250Z,4.00
2019-01-05T08:56:49.226Z,4.10
2019-01-05T09:00:19.738Z,4.20
2019-01-05T09:03:49.759Z,4.30
2019-01-05T09:07:36.846Z,4.30
2019-01-05T09:11:13.937Z,4.30
2019-01-05T09:14:50.591Z,4.40
2019-01-05T09:18:13.130Z,4.40
2019-01-05T09:21:44.721Z,4.40
2019-01-05T09:25:20.950Z,4.30
2019-01-05T09:29:13.917Z,4.30
2019-01-05T09:32:30.073Z,4.40
2019-01-05T09:36:02.502Z,4.60
2019-01-05T09:39:28.886Z,4.60
2019-01-05T09:42:51.335Z,4.70
2019-01-05T09:46:19.375Z,4.80
2019-01-05T09:50:01.628Z,4.70
2019-01-05T09:53:38.930Z,4.70
2019-01-05T09:57:11.545Z,4.80
2019-01-05T10:00:30.021Z,4.90
2019-01-05T10:04:11.343Z,5.10
2019-01-05T10:07:35.090Z,5.20
2019-01-05T10:10:44.905Z,5.30
2019-01-05T10:14:02.948Z,5.40
2019-01-05T10:17:20.397Z,5.60
2019-01-05T10:20:58.498Z,5.70
2019-01-05T10:24:22.059Z,5.80
2019-01-05T10:27:39.122Z,6.00
2019-01-05T10:31:18.896Z,6.00
2019-01-05T10:34:34.330Z,6.00
2019-01-05T10:37:50.996Z,6.10
2019-01-05T10:41:13.614Z,6.20
2019-01-05T10:44:37.112Z,6.20
2019-01-05T10:47:56.497Z,6.30
2019-01-05T10:51:32.447Z,6.40
2019-01-05T10:54:58.938Z,6.50
2019-01-05T10:58:26.596Z,6.60
2019-01-05T11:02:20.195Z,6.60
2019-01-05T11:06:04.958Z,6.70
2019-01-05T11:09:31.709Z,6.70
2019-01-05T11:13:10.384Z,6.90
2019-01-05T11:16:42.776Z,6.90
2019-01-05T11:20:10.261Z,6.90
2019-01-05T11:23:42.169Z,7.00
2019-01-05T11:27:07.318Z,7.10
2019-01-05T11:30:31.462Z,7.20
2019-01-05T11:34:10.237Z,7.20
2019-01-05T11:37:31.216Z,7.30
2019-01-05T11:41:03.736Z,7.30
2019-01-05T11:44:25.807Z,7.40
2019-01-05T11:48:04.910Z,7.50
2019-01-05T11:51:25.823Z,7.60
2019-01-05T11:55:08.458Z,7.70
2019-01-05T11:58:39.483Z,7.70
2019-01-05T12:02:19.498Z,7.70
2019-01-05T12:05:41.626Z,7.70
2019-01-05T12:08:53.855Z,7.70
2019-01-05T12:12:37.513Z,7.70
2019-01-05T12:16:03.951Z,7.70
2019-01-05T12:19:30.782Z,7.70
2019-01-05T12:23:01.462Z,7.70
2019-01-05T12:26:32.759Z,7.70
2019-01-05T12:29:59.211Z,7.70
2019-01-05T12:33:25.874Z,7.70
2019-01-05T12:37:08.836Z,7.80
2019-01-05T12:40:30.598Z,7.80
2019-01-05T12:44:20.475Z,7.80
2019-01-05T12:47:57.698Z,7.70
2019-01-05T12:51:20.177Z,7.70
2019-01-05T12:54:37.754Z,7.70
2019-01-05T12:58:34.078Z,7.70
2019-01-05T13:02:06.418Z,7.80
2019-01-05T13:05:57.997Z,7.60
2019-01-05T13:09:21.800Z,7.70
2019-01-05T13:12:52.007Z,7.70
2019-01-05T13:16:08.582Z,7.80
2019-01-05T13:19:44.147Z,7.80
2019-01-05T13:23:07.224Z,7.80
2019-01-05T13:26:40.574Z,7.80
2019-01-05T13:30:41.181Z,7.80
2019-01-05T13:34:02.875Z,7.80
2019-01-05T13:37:45.627Z,7.70
2019-01-05T13:41:03.667Z,7.70
2019-01-05T13:44:24.983Z,7.70
2019-01-05T13:47:48.758Z,7.70
2019-01-05T13:51:25.369Z,7.80
2019-01-05T13:54:09.569Z,7.80
2019-01-05T13:57:08.574Z,7.80
2019-01-05T13:59:56.014Z,7.80
2019-01-05T14:02:33.972Z,7.80
2019-01-05T14:05:41.127Z,7.80
2019-01-05T14:08:38.339Z,7.80
2019-01-05T14:11:25.151Z,7.80
2019-01-05T14:14:12.292Z,7.80
2019-01-05T14:17:01.121Z,7.70
2019-01-05T14:19:47.776Z,7.70
2019-01-05T14:22:34.593Z,7.70
2019-01-05T14:25:35.972Z,7.70
2019-01-05T14:28:33.339Z,7.80
2019-01-05T14:31:30.775Z,7.80
2019-01-05T14:34:30.991Z,7.70
2019-01-05T14:37:28.382Z,7.80
2019-01-05T14:40:15.309Z,7.70
2019-01-05T14:43:06.579Z,7.70
2019-01-05T14:45:53.191Z,7.60
2019-01-05T14:48:40.480Z,7.60
2019-01-05T14:51:32.495Z,7.60
2019-01-05T14:54:35.718Z,7.60
2019-01-05T14:57:22.299Z,7.70
2019-01-05T15:00:28.554Z,7.80
2019-01-05T15:03:17.091Z,7.70
2019-01-05T15:06:06.875Z,7.60
2019-01-05T15:08:58.370Z,7.60
2019-01-05T15:11:49.458Z,7.60
2019-01-05T15:14:37.629Z,7.60
2019-01-05T15:17:40.826Z,7.60
2019-01-05T15:20:29.255Z,7.60
2019-01-05T15:23:23.793Z,7.60
2019-01-05T15:26:19.120Z,7.50
2019-01-05T15:29:07.349Z,7.50
2019-01-05T15:31:58.310Z,7.50
2019-01-05T15:34:44.834Z,7.50
2019-01-05T15:37:31.786Z,7.50
2019-01-05T15:40:32.350Z,7.50
2019-01-05T15:43:18.974Z,7.50
2019-01-05T15:46:13.342Z,7.50
2019-01-05T15:49:07.681Z,7.60
2019-01-05T15:51:55.073Z,7.60
2019-01-05T15:54:55.190Z,7.60
2019-01-05T15:57:41.998Z,7.60
2019-01-05T16:00:28.954Z,7.60
2019-01-05T16:03:20.493Z,7.60
2019-01-05T16:06:11.665Z,7.60
2019-01-05T16:08:58.569Z,7.70
2019-01-05T16:11:42.717Z,7.60
2019-01-05T16:14:29.735Z,7.50
2019-01-05T16:17:18.282Z,7.50
2019-01-05T16:20:24.407Z,7.50
2019-01-05T16:23:15.729Z,7.50
2019-01-05T16:25:58.746Z,7.50
2019-01-05T16:28:50.010Z,7.40
2019-01-05T16:31:34.383Z,7.40
2019-01-05T16:34:22.831Z,7.50
2019-01-05T16:37:09.483Z,7.40
2019-01-05T16:40:09.861Z,7.50
2019-01-05T16:42:56.779Z,7.50
2019-01-05T16:46:00.113Z,7.50
2019-01-05T16:48:57.326Z,7.50
2019-01-05T16:51:44.063Z,7.50
2019-01-05T16:54:27.131Z,7.60
2019-01-05T16:57:15.522Z,7.50
2019-01-05T17:00:02.379Z,7.50
2019-01-05T17:02:48.947Z,7.60
2019-01-05T17:05:35.789Z,7.50
2019-01-05T17:08:22.930Z,7.50
2019-01-05T17:11:07.705Z,7.50
2019-01-05T17:13:53.445Z,7.50
2019-01-05T17:16:35.310Z,7.40
2019-01-05T17:19:21.862Z,7.40
2019-01-05T17:22:08.680Z,7.40
2019-01-05T17:24:55.778Z,7.40
2019-01-05T17:27:42.350Z,7.40
2019-01-05T17:30:42.557Z,7.50
2019-01-05T17:33:33.525Z,7.50
2019-01-05T17:36:28.037Z,7.50
2019-01-05T17:39:34.077Z,7.50
2019-01-05T17:42:20.908Z,7.50
2019-01-05T17:45:07.610Z,7.50
2019-01-05T17:47:56.068Z,7.50
2019-01-05T17:50:53.289Z,7.40
2019-01-05T17:53:44.778Z,7.40
2019-01-05T17:56:31.667Z,7.40
2019-01-05T17:59:21.649Z,7.40
2019-01-05T18:02:01.548Z,7.40
2019-01-05T18:04:58.830Z,7.40
2019-01-05T18:07:35.974Z,7.50
2019-01-05T18:10:22.872Z,7.40
2019-01-05T18:13:09.734Z,7.50
2019-01-05T18:16:10.058Z,7.50
2019-01-05T18:19:16.216Z,7.50
2019-01-05T18:22:11.205Z,7.50
2019-01-05T18:24:57.776Z,7.40
2019-01-05T18:27:44.838Z,7.40
2019-01-05T18:30:39.029Z,7.40
2019-01-05T18:33:21.455Z,7.50
2019-01-05T18:36:28.291Z,7.50
2019-01-05T18:39:16.749Z,7.50
2019-01-05T18:42:03.353Z,7.50
2019-01-05T18:44:50.568Z,7.50
2019-01-05T18:47:39.273Z,7.50
2019-01-05T18:50:22.361Z,7.50
2019-01-05T18:53:09.607Z,7.50
2019-01-05T18:56:06.787Z,7.40
2019-01-05T18:58:50.530Z,7.50
2019-01-05T19:01:48.322Z,7.50
2019-01-05T19:04:35.590Z,7.50
2019-01-05T19:07:39.692Z,7.40
2019-01-05T19:10:42.184Z,7.40
2019-01-05T19:13:41.611Z,7.40
2019-01-05T19:16:28.248Z,7.40
2019-01-05T19:19:15.019Z,7.50
2019-01-05T19:22:06.555Z,7.50
2019-01-05T19:24:55.614Z,7.40
2019-01-05T19:27:44.059Z,7.50
2019-01-05T19:30:30.668Z,7.50
2019-01-05T19:33:17.535Z,7.60
2019-01-05T19:36:04.710Z,7.50
2019-01-05T19:38:51.466Z,7.50
2019-01-05T19:41:38.358Z,7.50
2019-01-05T19:44:26.722Z,7.50
2019-01-05T19:47:15.810Z,7.50
2019-01-05T19:49:54.786Z,7.60
2019-01-05T19:52:50.822Z,7.50
2019-01-05T19:55:44.787Z,7.50
2019-01-05T19:58:42.243Z,7.50
2019-01-05T20:01:41.882Z,7.50
2019-01-05T20:04:42.262Z,7.50
2019-01-05T20:07:28.874Z,7.50
2019-01-05T20:10:19.982Z,7.40
2019-01-05T20:13:05.656Z,7.30
2019-01-05T20:15:52.380Z,7.30
2019-01-05T20:18:39.203Z,7.30
2019-01-05T20:21:23.725Z,7.30
2019-01-05T20:24:10.817Z,7.40
2019-01-05T20:26:57.374Z,7.30
2019-01-05T20:29:51.606Z,7.30
2019-01-05T20:32:36.003Z,7.30
2019-01-05T20:35:22.842Z,7.30
2019-01-05T20:38:14.066Z,7.30
2019-01-05T20:41:08.440Z,7.30
2019-01-05T20:43:57.624Z,7.30
2019-01-05T20:46:51.806Z,7.30
2019-01-05T20:49:52.542Z,7.30
2019-01-05T20:52:39.360Z,7.30
2019-01-05T20:55:26.630Z,7.30
2019-01-05T20:58:15.101Z,7.10
2019-01-05T21:01:01.702Z,7.10
2019-01-05T21:03:50.016Z,7.20
2019-01-05T21:06:41.230Z,7.20
2019-01-05T21:09:24.547Z,7.20
2019-01-05T21:12:09.991Z,7.20
2019-01-05T21:14:56.777Z,7.30
2019-01-05T21:17:45.294Z,7.20
2019-01-05T21:20:35.874Z,7.30
2019-01-05T21:23:39.077Z,7.30
2019-01-05T21:26:46.071Z,7.30
2019-01-05T21:29:34.539Z,7.20
2019-01-05T21:32:21.365Z,7.30
2019-01-05T21:35:09.825Z,7.40
2019-01-05T21:37:58.097Z,7.40
2019-01-05T21:40:46.298Z,7.30
2019-01-05T21:43:52.386Z,7.40
2019-01-05T21:46:39.269Z,7.40
2019-01-05T21:49:33.746Z,7.40
2019-01-05T21:52:21.418Z,7.50
2019-01-05T21:55:04.150Z,7.40
2019-01-05T21:57:50.988Z,7.30
2019-01-05T22:00:39.111Z,7.40
2019-01-05T22:03:45.566Z,7.40
2019-01-05T22:06:37.702Z,7.30
2019-01-05T22:09:24.770Z,7.30
2019-01-05T22:12:11.791Z,7.40
2019-01-05T22:14:58.615Z,7.30
2019-01-05T22:17:45.351Z,7.30
2019-01-05T22:20:38.417Z,7.20
2019-01-05T22:23:17.605Z,7.20
2019-01-05T22:26:04.724Z,7.30
2019-01-05T22:28:58.942Z,7.30
2019-01-05T22:31:46.442Z,7.20
2019-01-05T22:34:33.239Z,7.30
2019-01-05T22:37:24.456Z,7.30
2019-01-05T22:40:21.746Z,7.50
2019-01-05T22:43:10.175Z,7.90
2019-01-05T22:45:57.016Z,7.60
2019-01-05T22:48:51.210Z,7.50
2019-01-05T22:51:49.696Z,7.50
2019-01-05T22:54:36.579Z,7.40
2019-01-05T22:57:23.755Z,7.40
2019-01-05T23:00:17.854Z,7.40
2019-01-05T23:03:15.667Z,7.30
2019-01-05T23:06:16.561Z,7.30
2019-01-05T23:09:03.541Z,7.40
2019-01-05T23:11:50.686Z,7.40
2019-01-05T23:14:52.115Z,7.50
2019-01-05T23:17:40.581Z,7.40
2019-01-05T23:20:33.629Z,7.30
2019-01-05T23:23:35.379Z,7.40
2019-01-05T23:26:39.477Z,7.40
2019-01-05T23:29:36.688Z,7.50
2019-01-05T23:32:39.745Z,7.40
2019-01-05T23:35:26.404Z,7.40
2019-01-05T23:38:15.761Z,7.50
2019-01-05T23:41:08.758Z,7.40
2019-01-05T23:43:55.657Z,7.30
2019-01-05T23:46:50.116Z,7.30
2019-01-05T23:49:50.686Z,7.40
2019-01-05T23:52:37.437Z,7.50
2019-01-05T23:55:24.159Z,7.50
2019-01-05T23:58:31.050Z,7.40
